Time;durP1;ratioP1;P1;durP2;ratioP2;P2;SDS_P1;SDS_P2;PMS_P1;PMS_P2;Temp;Humidity;BMP_temperature;BMP_pressure;BME280_temperature;BME280_humidity;BME280_pressure;Samples;Min_cycle;Max_cycle;Signal;HPM_P1;HPM_P2
2023/05/19 00:01:07;;;;;;;9.07;5.97;;;7.60;99.90;;;;;;4999894;28;89515;-33
2023/05/19 00:03:36;;;;;;;13.65;6.13;;;7.70;99.90;;;;;;5000259;28;89025;-32
2023/05/19 00:06:03;;;;;;;6.10;4.40;;;7.60;99.90;;;;;;5001006;28;90925;-35
2023/05/19 00:08:33;;;;;;;5.70;4.90;;;7.60;99.90;;;;;;5000053;28;90070;-32
2023/05/19 00:10:59;;;;;;;12.77;4.25;;;7.60;99.90;;;;;;5000319;28;90436;-31
2023/05/19 00:13:26;;;;;;;15.82;5.68;;;7.50;99.90;;;;;;4999967;28;89356;-35
2023/05/19 00:15:52;;;;;;;8.88;5.40;;;7.50;99.90;;;;;;5000003;28;90418;-35
2023/05/19 00:18:19;;;;;;;9.43;4.63;;;7.50;99.90;;;;;;4999733;28;89778;-32
2023/05/19 00:20:45;;;;;;;7.47;5.95;;;7.40;99.90;;;;;;5000426;28;89220;-30
2023/05/19 00:23:11;;;;;;;8.77;4.55;;;7.40;99.90;;;;;;5000169;28;89875;-32
2023/05/19 00:25:36;;;;;;;11.18;5.40;;;7.50;99.90;;;;;;5000205;28;90221;-37
2023/05/19 00:28:02;;;;;;;6.47;4.97;;;7.50;99.90;;;;;;4999937;28;89788;-31
2023/05/19 00:30:31;;;;;;;7.70;4.60;;;7.50;99.90;;;;;;5000339;28;89550;-33
2023/05/19 00:32:57;;;;;;;13.55;6.30;;;7.50;99.90;;;;;;4999819;28;87892;-33
2023/05/19 00:35:23;;;;;;;6.57;4.93;;;7.40;99.90;;;;;;5000467;28;90377;-32
2023/05/19 00:37:48;;;;;;;13.20;4.93;;;7.40;99.90;;;;;;4999158;28;90479;-31
2023/05/19 00:40:14;;;;;;;15.00;6.15;;;7.60;99.90;;;;;;4999553;28;90079;-36
2023/05/19 00:42:40;;;;;;;8.30;5.45;;;7.50;99.90;;;;;;5000420;28;88358;-32
2023/05/19 00:45:06;;;;;;;8.02;5.68;;;7.50;99.90;;;;;;4999498;28;90006;-35
2023/05/19 00:47:32;;;;;;;9.57;4.82;;;7.50;99.90;;;;;;4999863;28;89924;-34
2023/05/19 00:49:58;;;;;;;14.05;4.68;;;7.40;99.90;;;;;;4999727;28;90288;-31
2023/05/19 00:52:24;;;;;;;10.20;6.57;;;7.30;99.90;;;;;;4999102;28;89200;-37
2023/05/19 00:54:51;;;;;;;9.38;4.63;;;7.30;99.90;;;;;;5000656;28;90314;-31
2023/05/19 00:57:17;;;;;;;6.72;5.30;;;7.40;99.90;;;;;;4999043;28;89661;-32
2023/05/19 00:59:43;;;;;;;17.58;5.40;;;7.30;99.90;;;;;;4999689;28;89810;-35
2023/05/19 01:02:09;;;;;;;8.05;6.18;;;7.30;99.90;;;;;;4999236;28;90216;-32
2023/05/19 01:04:36;;;;;;;6.97;5.20;;;7.20;99.90;;;;;;4999408;28;90188;-30
2023/05/19 01:07:03;;;;;;;8.37;5.23;;;7.30;99.90;;;;;;4999396;28;89458;-37
2023/05/19 01:09:30;;;;;;;10.40;5.80;;;7.20;99.90;;;;;;4999948;28;89781;-33
2023/05/19 01:11:56;;;;;;;11.57;6.10;;;7.20;99.90;;;;;;4999449;28;88318;-31
2023/05/19 01:14:22;;;;;;;15.35;6.57;;;7.20;99.90;;;;;;4999153;28;90419;-36
2023/05/19 01:17:04;;;;;;;7.30;5.13;;;7.20;99.90;;;;;;4998624;28;90042;-33
2023/05/19 01:19:32;;;;;;;8.10;6.30;;;7.20;99.90;;;;;;4999694;28;89609;-33
2023/05/19 01:22:05;;;;;;;9.65;5.38;;;7.20;99.90;;;;;;4999934;28;88342;-32
2023/05/19 01:25:07;;;;;;;7.95;5.68;;;7.10;99.90;;;;;;4998644;28;91177;-34
2023/05/19 01:27:52;;;;;;;11.02;6.75;;;7.10;99.90;;;;;;4998562;28;89813;-31
2023/05/19 01:30:24;;;;;;;9.30;5.93;;;7.10;99.90;;;;;;4999120;28;90554;-33
2023/05/19 01:32:52;;;;;;;8.70;5.53;;;7.10;99.90;;;;;;4998220;28;89121;-34
2023/05/19 01:35:18;;;;;;;13.82;6.57;;;7.10;99.90;;;;;;4998595;28;89786;-35
2023/05/19 01:37:46;;;;;;;7.15;4.65;;;7.10;99.90;;;;;;4999144;28;89789;-37
2023/05/19 01:40:12;;;;;;;8.85;4.95;;;7.10;99.90;;;;;;4998899;28;89394;-34
2023/05/19 01:42:39;;;;;;;9.38;5.95;;;7.10;99.90;;;;;;4999052;28;88545;-34
2023/05/19 01:45:09;;;;;;;11.68;5.55;;;7.10;99.90;;;;;;4998866;28;90714;-37
2023/05/19 01:47:39;;;;;;;8.05;5.10;;;7.10;99.90;;;;;;4985894;28;89158;-31
2023/05/19 01:50:05;;;;;;;8.25;5.22;;;7.00;99.90;;;;;;4998414;28;88176;-36
2023/05/19 01:52:31;;;;;;;9.80;5.90;;;7.00;99.90;;;;;;4998928;28;89831;-32
2023/05/19 01:54:57;;;;;;;8.45;5.10;;;7.00;99.90;;;;;;4980646;28;92308;-36
2023/05/19 01:57:51;;;;;;;6.55;4.38;;;6.90;99.90;;;;;;4998282;28;89557;-34
2023/05/19 02:00:38;;;;;;;20.80;6.32;;;7.00;99.90;;;;;;4998266;28;89579;-32
2023/05/19 02:03:06;;;;;;;14.52;5.50;;;7.00;99.90;;;;;;4998497;28;88446;-32
2023/05/19 02:05:54;;;;;;;13.02;5.32;;;7.00;99.90;;;;;;4998157;28;90317;-35
2023/05/19 02:08:24;;;;;;;8.73;4.63;;;7.00;99.90;;;;;;4998024;28;89943;-31
2023/05/19 02:11:01;;;;;;;8.55;5.68;;;6.90;99.90;;;;;;4998429;28;91218;-33
2023/05/19 02:13:32;;;;;;;13.70;6.90;;;6.90;99.90;;;;;;4998541;28;89717;-36
2023/05/19 02:16:03;;;;;;;9.40;5.25;;;6.90;99.90;;;;;;4998104;28;90619;-32
2023/05/19 02:18:29;;;;;;;12.52;5.25;;;6.90;99.90;;;;;;4997632;28;90442;-34
2023/05/19 02:20:55;;;;;;;7.65;5.03;;;6.90;99.90;;;;;;4998143;28;90920;-33
2023/05/19 02:23:20;;;;;;;11.20;4.93;;;6.90;99.90;;;;;;4998211;28;89407;-33
2023/05/19 02:25:46;;;;;;;7.35;5.18;;;6.90;99.90;;;;;;4998356;28;90139;-35
2023/05/19 02:28:11;;;;;;;6.97;4.90;;;6.90;99.90;;;;;;4998508;28;89936;-31
2023/05/19 02:30:37;;;;;;;7.18;4.35;;;6.90;99.90;;;;;;4989176;28;90168;-34
2023/05/19 02:33:05;;;;;;;15.23;5.85;;;6.80;99.90;;;;;;4985642;28;89070;-34
2023/05/19 02:35:31;;;;;;;12.18;5.72;;;6.90;99.90;;;;;;4998268;28;90373;-32
2023/05/19 02:37:56;;;;;;;7.75;5.32;;;7.00;99.90;;;;;;4998250;28;89601;-35
2023/05/19 02:40:22;;;;;;;13.60;5.18;;;6.90;99.90;;;;;;4998219;28;89873;-36
2023/05/19 02:42:47;;;;;;;7.03;4.20;;;6.90;99.90;;;;;;4997858;28;88720;-35
2023/05/19 02:45:13;;;;;;;10.88;6.18;;;6.80;99.90;;;;;;5001131;28;90133;-36
2023/05/19 02:47:40;;;;;;;6.63;5.07;;;6.80;99.90;;;;;;5001836;28;89453;-32
2023/05/19 02:50:06;;;;;;;9.07;4.57;;;6.70;99.90;;;;;;5001862;28;89718;-31
2023/05/19 02:52:32;;;;;;;12.88;6.90;;;6.70;99.90;;;;;;5002135;28;88857;-37
2023/05/19 02:54:58;;;;;;;12.68;5.05;;;6.70;99.90;;;;;;5001155;28;90104;-33
2023/05/19 02:57:25;;;;;;;9.82;4.95;;;6.70;99.90;;;;;;5000932;28;89689;-33
2023/05/19 02:59:51;;;;;;;18.13;6.70;;;6.60;99.90;;;;;;5001713;28;90236;-34
2023/05/19 03:02:17;;;;;;;6.97;5.43;;;6.70;99.90;;;;;;5001444;28;87668;-34
2023/05/19 03:04:42;;;;;;;9.45;6.53;;;6.60;99.90;;;;;;5001323;28;90345;-31
2023/05/19 03:07:09;;;;;;;15.00;6.65;;;6.70;99.90;;;;;;5000560;28;90519;-35
2023/05/19 03:09:37;;;;;;;8.65;6.55;;;6.60;99.90;;;;;;5001106;28;89984;-31
2023/05/19 03:12:05;;;;;;;;;;;6.60;99.90;;;;;;5002265;28;89225;-33
2023/05/19 03:14:32;;;;;;;9.57;5.43;;;6.60;99.90;;;;;;5002729;28;90336;-31
2023/05/19 03:16:58;;;;;;;10.35;4.68;;;6.50;99.90;;;;;;5001334;28;89486;-31
2023/05/19 03:19:24;;;;;;;7.55;4.05;;;6.50;99.90;;;;;;5000457;28;88922;-35
2023/05/19 03:21:50;;;;;;;14.15;5.22;;;6.50;99.90;;;;;;4990955;28;90217;-32
2023/05/19 03:24:16;;;;;;;19.60;5.63;;;6.50;99.90;;;;;;5001195;28;90096;-31
2023/05/19 03:26:42;;;;;;;12.48;6.68;;;6.50;99.90;;;;;;5001155;28;89642;-31
2023/05/19 03:29:08;;;;;;;10.85;6.10;;;6.50;99.90;;;;;;5000625;28;89799;-34
2023/05/19 03:31:33;;;;;;;10.02;5.68;;;6.40;99.90;;;;;;5000484;28;89398;-36
2023/05/19 03:33:59;;;;;;;10.48;4.93;;;6.40;99.90;;;;;;5000586;28;90262;-34
2023/05/19 03:36:30;;;;;;;10.18;5.85;;;6.40;99.90;;;;;;5000780;28;89689;-32
2023/05/19 03:38:56;;;;;;;11.25;6.60;;;6.50;99.90;;;;;;5001213;28;88096;-33
2023/05/19 03:41:22;;;;;;;8.27;5.00;;;6.50;99.90;;;;;;5000449;28;89153;-30
2023/05/19 03:43:47;;;;;;;6.15;4.47;;;6.50;99.90;;;;;;5000572;28;90037;-35
2023/05/19 03:46:13;;;;;;;7.15;5.43;;;6.50;99.90;;;;;;4999793;28;89435;-32
2023/05/19 03:48:39;;;;;;;10.32;6.28;;;6.50;99.90;;;;;;5000937;28;90061;-36
2023/05/19 03:51:04;;;;;;;8.43;6.45;;;6.50;99.90;;;;;;5000886;28;88142;-33
2023/05/19 03:53:30;;;;;;;8.65;6.15;;;6.50;99.90;;;;;;4999577;28;89258;-35
2023/05/19 03:55:55;;;;;;;11.10;6.75;;;6.50;99.90;;;;;;5000361;28;90918;-31
2023/05/19 03:58:21;;;;;;;27.52;7.65;;;6.50;99.90;;;;;;5000017;28;89483;-31
2023/05/19 04:00:46;;;;;;;14.02;5.93;;;6.50;99.90;;;;;;5001138;28;89402;-34
2023/05/19 04:03:12;;;;;;;36.42;9.48;;;6.50;99.90;;;;;;5000039;28;89405;-32
2023/05/19 04:05:38;;;;;;;7.72;5.75;;;6.50;99.90;;;;;;5000342;28;89429;-37
2023/05/19 04:08:03;;;;;;;5.60;4.38;;;6.50;99.90;;;;;;5000637;28;89855;-33
2023/05/19 04:10:29;;;;;;;9.27;4.45;;;6.50;99.90;;;;;;5000318;28;89693;-36
2023/05/19 04:12:55;;;;;;;73.70;8.23;;;6.50;99.90;;;;;;5000903;28;89990;-33
2023/05/19 04:15:21;;;;;;;31.67;7.05;;;6.50;99.90;;;;;;5036214;22;89288;-33
2023/05/19 04:17:46;;;;;;;85.25;12.63;;;6.60;99.90;;;;;;5020736;28;89552;-35
2023/05/19 04:20:12;;;;;;;8.02;5.32;;;6.60;99.90;;;;;;5019258;28;88689;-34
2023/05/19 04:22:38;;;;;;;75.35;9.73;;;6.60;99.90;;;;;;5020189;28;89773;-32
2023/05/19 04:25:04;;;;;;;105.40;15.73;;;6.70;99.90;;;;;;5020892;28;89580;-31
2023/05/19 04:27:30;;;;;;;16.77;5.68;;;6.70;99.90;;;;;;5018860;28;89889;-33
2023/05/19 04:29:57;;;;;;;11.95;6.90;;;6.70;99.90;;;;;;5020853;28;89868;-34
2023/05/19 04:32:22;;;;;;;10.82;5.85;;;6.70;99.90;;;;;;5019268;28;89887;-33
2023/05/19 04:34:48;;;;;;;9.18;5.78;;;6.80;99.90;;;;;;5019924;28;89943;-33
2023/05/19 04:37:17;;;;;;;15.43;5.65;;;6.90;99.90;;;;;;5020262;28;89770;-31
2023/05/19 04:39:44;;;;;;;16.58;5.82;;;7.10;99.90;;;;;;5020896;28;88257;-31
2023/05/19 04:42:10;;;;;;;9.70;7.43;;;7.20;99.90;;;;;;5019520;28;90007;-33
2023/05/19 04:44:36;;;;;;;12.00;7.38;;;7.30;99.90;;;;;;5019913;28;90176;-36
2023/05/19 04:47:04;;;;;;;7.50;5.88;;;7.40;99.90;;;;;;5019915;28;90481;-32
2023/05/19 04:49:31;;;;;;;13.52;5.25;;;7.50;99.90;;;;;;5001693;28;88512;-32
2023/05/19 04:51:56;;;;;;;10.65;6.57;;;7.60;99.90;;;;;;5019206;28;90504;-35
2023/05/19 04:54:22;;;;;;;11.52;6.18;;;7.80;99.90;;;;;;5019873;28;89992;-31
2023/05/19 04:56:48;;;;;;;11.68;6.40;;;7.90;99.90;;;;;;5019014;28;89584;-34
2023/05/19 04:59:13;;;;;;;12.02;7.25;;;8.10;99.90;;;;;;5020164;28;89396;-35
2023/05/19 05:01:39;;;;;;;12.82;6.85;;;8.20;99.90;;;;;;5018979;28;90347;-35
2023/05/19 05:04:05;;;;;;;9.02;6.10;;;8.30;99.90;;;;;;5019823;28;89858;-33
2023/05/19 05:06:32;;;;;;;7.53;6.15;;;8.60;99.90;;;;;;5018431;27;89393;-33
2023/05/19 05:08:58;;;;;;;10.55;6.00;;;8.60;99.90;;;;;;5018757;28;90311;-35
2023/05/19 05:11:25;;;;;;;9.98;6.38;;;8.80;99.90;;;;;;5019707;28;88353;-35
2023/05/19 05:13:51;;;;;;;11.38;7.63;;;9.10;99.90;;;;;;5019559;28;89963;-32
2023/05/19 05:16:17;;;;;;;9.73;6.57;;;9.10;99.90;;;;;;5018152;28;89664;-35
2023/05/19 05:18:43;;;;;;;7.80;6.65;;;9.30;99.90;;;;;;5002394;28;88413;-34
2023/05/19 05:21:09;;;;;;;11.50;7.65;;;9.40;99.90;;;;;;5019227;28;89953;-32
2023/05/19 05:23:35;;;;;;;12.23;6.63;;;9.50;99.90;;;;;;5019135;28;90191;-36
2023/05/19 05:26:07;;;;;;;9.60;6.00;;;9.70;99.90;;;;;;5019869;28;89261;-36
2023/05/19 05:28:33;;;;;;;10.95;7.65;;;9.70;99.90;;;;;;5019317;28;88949;-33
2023/05/19 05:30:59;;;;;;;15.07;8.63;;;9.80;99.90;;;;;;5001387;28;90422;-33
2023/05/19 05:33:25;;;;;;;9.85;6.10;;;10.00;99.90;;;;;;5017875;28;90978;-31
2023/05/19 05:35:51;;;;;;;10.55;6.95;;;10.10;99.90;;;;;;5019714;28;90113;-32
2023/05/19 05:38:17;;;;;;;10.30;7.63;;;10.20;99.90;;;;;;5018650;28;90196;-32
2023/05/19 05:40:43;;;;;;;10.07;6.65;;;10.30;99.90;;;;;;5018467;28;90591;-33
2023/05/19 05:43:08;;;;;;;10.65;7.13;;;10.40;99.90;;;;;;5000445;28;89735;-30
2023/05/19 05:45:34;;;;;;;9.13;6.63;;;10.50;99.90;;;;;;5018826;28;88730;-32
2023/05/19 05:48:00;;;;;;;9.80;6.15;;;10.70;99.90;;;;;;5019824;28;89941;-34
2023/05/19 05:50:25;;;;;;;14.70;7.35;;;10.80;99.90;;;;;;5018750;28;90470;-32
2023/05/19 05:52:52;;;;;;;13.18;7.60;;;10.90;99.90;;;;;;5018570;28;89555;-35
2023/05/19 05:55:18;;;;;;;13.27;8.05;;;11.00;99.90;;;;;;5018527;28;89707;-31
2023/05/19 05:57:44;;;;;;;14.52;6.80;;;11.20;99.90;;;;;;5018634;28;90659;-33
2023/05/19 06:00:14;;;;;;;10.63;7.22;;;11.40;99.90;;;;;;5018867;28;90265;-35
2023/05/19 06:02:42;;;;;;;9.95;7.40;;;11.50;99.90;;;;;;5018810;28;90285;-33
2023/05/19 06:05:11;;;;;;;8.48;5.78;;;11.70;99.90;;;;;;5018969;28;89523;-33
2023/05/19 06:07:37;;;;;;;11.93;7.25;;;11.70;99.90;;;;;;5018713;28;89696;-33
2023/05/19 06:10:03;;;;;;;9.50;6.90;;;11.80;99.90;;;;;;5019034;28;90262;-35
2023/05/19 06:12:29;;;;;;;10.98;7.07;;;12.00;99.90;;;;;;5018688;28;89997;-34
2023/05/19 06:14:54;;;;;;;12.27;8.38;;;12.10;99.90;;;;;;5018696;28;90332;-32
2023/05/19 06:17:20;;;;;;;8.50;5.53;;;12.20;99.90;;;;;;5018830;27;89683;-35
2023/05/19 06:19:46;;;;;;;9.15;6.68;;;12.20;99.90;;;;;;5022840;28;90489;-31
2023/05/19 06:22:11;;;;;;;8.38;6.47;;;12.40;99.90;;;;;;5020963;28;91513;-32
2023/05/19 06:24:37;;;;;;;16.80;8.40;;;12.50;99.90;;;;;;5019547;28;91425;-32
2023/05/19 06:27:02;;;;;;;12.50;7.35;;;12.70;99.90;;;;;;5022590;28;89806;-31
2023/05/19 06:29:28;;;;;;;8.45;7.32;;;12.90;99.90;;;;;;5021590;28;90826;-36
2023/05/19 06:31:55;;;;;;;11.77;6.70;;;12.90;99.90;;;;;;5021954;28;88683;-34
2023/05/19 06:34:20;;;;;;;9.60;7.97;;;12.90;99.90;;;;;;5021542;28;89308;-33
2023/05/19 06:36:46;;;;;;;9.88;6.55;;;13.20;99.90;;;;;;5022989;28;89575;-32
2023/05/19 06:39:12;;;;;;;8.88;7.00;;;13.40;99.90;;;;;;5021788;28;90381;-33
2023/05/19 06:41:37;;;;;;;11.00;6.85;;;13.50;99.90;;;;;;5021980;28;89909;-35
2023/05/19 06:44:03;;;;;;;14.38;7.07;;;;;;;;;;5022346;28;89225;-32
2023/05/19 06:46:29;;;;;;;9.10;6.00;;;13.70;99.90;;;;;;5021457;28;88381;-33
2023/05/19 06:48:55;;;;;;;11.18;7.10;;;13.80;99.90;;;;;;5022478;28;89720;-31
2023/05/19 06:51:21;;;;;;;11.15;6.60;;;14.10;99.90;;;;;;5011775;28;89637;-33
2023/05/19 06:53:47;;;;;;;10.55;6.00;;;14.20;99.90;;;;;;5022037;28;89858;-33
2023/05/19 06:56:14;;;;;;;9.45;6.15;;;14.20;99.90;;;;;;5022107;28;88095;-32
2023/05/19 06:58:40;;;;;;;12.50;5.22;;;14.30;99.90;;;;;;5021152;28;90494;-35
2023/05/19 07:01:06;;;;;;;8.98;5.07;;;14.60;99.90;;;;;;5022401;28;90693;-33
2023/05/19 07:03:31;;;;;;;8.00;5.10;;;14.60;99.90;;;;;;5021408;28;90458;-33
2023/05/19 07:05:57;;;;;;;8.80;5.07;;;14.70;99.90;;;;;;5022470;28;88730;-31
2023/05/19 07:08:22;;;;;;;8.13;6.10;;;14.80;99.90;;;;;;5020985;28;92185;-31
2023/05/19 07:10:48;;;;;;;11.25;6.63;;;15.00;99.90;;;;;;5020356;28;90809;-34
2023/05/19 07:13:13;;;;;;;7.15;5.18;;;15.10;99.90;;;;;;5020891;28;90233;-34
2023/05/19 07:15:39;;;;;;;6.90;5.30;;;15.30;93.20;;;;;;5021376;28;88613;-33
2023/05/19 07:18:05;;;;;;;10.07;5.60;;;15.40;91.40;;;;;;5021462;28;90227;-32
2023/05/19 07:20:30;;;;;;;5.72;5.22;;;15.60;99.90;;;;;;5019931;28;90322;-33
2023/05/19 07:22:56;;;;;;;4.53;3.78;;;15.60;82.50;;;;;;5020551;28;89258;-31
2023/05/19 07:25:21;;;;;;;6.22;4.88;;;15.60;77.60;;;;;;5022161;28;88570;-31
2023/05/19 07:27:47;;;;;;;5.88;4.65;;;15.60;79.80;;;;;;5017905;28;89830;-35
2023/05/19 07:30:13;;;;;;;5.07;3.70;;;15.70;76.90;;;;;;5017036;28;89851;-34
2023/05/19 07:32:39;;;;;;;6.13;3.42;;;15.90;78.60;;;;;;5018546;28;89096;-34
2023/05/19 07:35:05;;;;;;;5.85;3.88;;;16.00;76.30;;;;;;5019021;28;89034;-33
2023/05/19 07:37:30;;;;;;;3.75;3.42;;;16.00;74.90;;;;;;5018237;28;90039;-33
2023/05/19 07:39:56;;;;;;;6.18;3.72;;;16.00;75.40;;;;;;5017431;28;89523;-35
2023/05/19 07:42:21;;;;;;;6.28;3.08;;;16.10;76.20;;;;;;5017382;28;89296;-34
2023/05/19 07:44:47;;;;;;;9.25;4.13;;;16.30;77.00;;;;;;5018358;28;89855;-32
2023/05/19 07:47:12;;;;;;;7.88;4.28;;;16.30;74.00;;;;;;5017838;28;90781;-34
2023/05/19 07:49:38;;;;;;;7.00;4.80;;;16.40;77.60;;;;;;5018609;28;89171;-32
2023/05/19 07:52:04;;;;;;;4.93;3.83;;;16.60;75.00;;;;;;5018053;28;89242;-35
2023/05/19 07:54:30;;;;;;;5.05;4.20;;;16.70;73.20;;;;;;5017279;28;89501;-34
2023/05/19 07:56:56;;;;;;;10.25;4.28;;;16.60;71.10;;;;;;5017437;28;89527;-34
2023/05/19 07:59:21;;;;;;;8.60;3.95;;;16.70;73.60;;;;;;4999415;28;90520;-35
2023/05/19 08:01:47;;;;;;;5.03;4.15;;;16.60;70.90;;;;;;5017550;28;89895;-35
2023/05/19 08:04:13;;;;;;;9.02;4.03;;;16.90;75.90;;;;;;5017936;28;90262;-32
2023/05/19 08:06:41;;;;;;;7.85;3.72;;;17.00;70.70;;;;;;5017719;28;90305;-32
2023/05/19 08:09:07;;;;;;;8.70;4.35;;;17.10;71.40;;;;;;5017398;28;90656;-35
2023/05/19 08:11:32;;;;;;;4.97;3.78;;;17.20;70.20;;;;;;5017422;28;89667;-34
2023/05/19 08:13:58;;;;;;;4.43;3.53;;;17.00;68.70;;;;;;5018166;28;88245;-35
2023/05/19 08:16:24;;;;;;;6.68;3.78;;;17.10;69.10;;;;;;5017616;28;89811;-36
2023/05/19 08:18:49;;;;;;;14.50;4.65;;;17.00;70.10;;;;;;5017452;28;89567;-33
2023/05/19 08:21:15;;;;;;;10.55;4.40;;;16.80;68.70;;;;;;5016992;28;89720;-31
2023/05/19 08:23:40;;;;;;;5.65;3.15;;;17.00;68.80;;;;;;5017726;28;89613;-32
2023/05/19 08:26:06;;;;;;;6.75;2.97;;;17.10;67.20;;;;;;5017474;28;90211;-36
2023/05/19 08:28:32;;;;;;;4.75;3.42;;;17.40;69.20;;;;;;5017543;28;89312;-33
2023/05/19 08:30:57;;;;;;;7.80;3.70;;;17.40;67.60;;;;;;5017420;28;89515;-33
2023/05/19 08:33:23;;;;;;;5.93;3.80;;;17.50;67.10;;;;;;5013943;28;89000;-32
2023/05/19 08:35:48;;;;;;;5.43;3.05;;;17.40;68.10;;;;;;5017886;28;89160;-32
2023/05/19 08:38:14;;;;;;;7.43;3.55;;;17.50;67.40;;;;;;5016758;28;89335;-33
2023/05/19 08:40:46;;;;;;;3.95;3.22;;;17.40;65.60;;;;;;5016878;27;89420;-36
2023/05/19 08:43:12;;;;;;;13.98;4.05;;;17.60;68.40;;;;;;5017683;28;89841;-35
2023/05/19 08:45:42;;;;;;;4.88;3.50;;;17.70;66.00;;;;;;5017022;28;90247;-31
2023/05/19 08:48:07;;;;;;;4.00;3.35;;;17.50;65.20;;;;;;5017166;28;90571;-36
2023/05/19 08:50:37;;;;;;;4.72;3.53;;;17.80;66.60;;;;;;5016619;28;89969;-32
2023/05/19 08:53:35;;;;;;;8.93;4.47;;;17.80;65.20;;;;;;5017740;28;89672;-33
2023/05/19 08:56:09;;;;;;;4.22;3.00;;;17.90;67.00;;;;;;4952389;28;90467;-33
2023/05/19 08:58:42;;;;;;;4.18;3.60;;;17.90;64.60;;;;;;5013860;28;89259;-34
2023/05/19 09:01:13;;;;;;;10.05;3.75;;;18.00;66.30;;;;;;5016797;28;89562;-33
2023/05/19 09:03:39;;;;;;;10.32;3.58;;;17.80;65.60;;;;;;5016365;28;88800;-32
2023/05/19 09:06:11;;;;;;;7.47;3.78;;;17.90;65.90;;;;;;5018053;28;89817;-32
2023/05/19 09:08:37;;;;;;;5.93;4.13;;;17.90;63.30;;;;;;5017240;28;89798;-33
2023/05/19 09:11:03;;;;;;;5.15;3.83;;;18.10;65.90;;;;;;5012945;28;90166;-33
2023/05/19 09:13:29;;;;;;;6.63;3.95;;;18.00;63.20;;;;;;5010590;28;90141;-33
2023/05/19 09:15:56;;;;;;;4.55;3.95;;;18.00;65.10;;;;;;5017493;28;89053;-31
2023/05/19 09:18:24;;;;;;;;;;;17.90;61.20;;;;;;5017590;28;89094;-34
2023/05/19 09:20:49;;;;;;;3.63;3.15;;;18.00;64.10;;;;;;5018526;28;90001;-32
2023/05/19 09:23:17;;;;;;;7.57;4.00;;;17.90;62.40;;;;;;5015836;28;89477;-31
2023/05/19 09:25:52;;;;;;;8.15;4.07;;;18.10;63.80;;;;;;5012795;28;90212;-32
2023/05/19 09:28:35;;;;;;;5.97;3.78;;;18.40;66.70;;;;;;5005565;28;89673;-32
2023/05/19 09:31:08;;;;;;;8.48;4.63;;;18.50;63.50;;;;;;5016820;28;89369;-31
2023/05/19 09:33:35;;;;;;;6.13;3.80;;;18.50;63.70;;;;;;5016429;28;88902;-34
2023/05/19 09:36:01;;;;;;;6.38;3.78;;;18.60;64.30;;;;;;5016481;28;90731;-34
2023/05/19 09:38:28;;;;;;;8.52;3.45;;;18.50;63.80;;;;;;5015996;28;89054;-31
2023/05/19 09:40:58;;;;;;;5.30;3.70;;;18.60;66.50;;;;;;5016343;28;88441;-33
2023/05/19 09:43:27;;;;;;;5.38;4.00;;;18.60;64.00;;;;;;5016417;28;89237;-35
2023/05/19 09:46:03;;;;;;;11.80;4.43;;;18.60;62.30;;;;;;5015487;28;90308;-36
2023/05/19 09:48:29;;;;;;;10.52;3.38;;;18.60;64.60;;;;;;5016220;28;89805;-31
2023/05/19 09:50:56;;;;;;;6.38;3.95;;;18.60;62.70;;;;;;5016462;28;89550;-32
2023/05/19 09:53:23;;;;;;;9.77;4.37;;;18.50;61.50;;;;;;5015576;28;89293;-35
2023/05/19 09:55:54;;;;;;;8.15;3.60;;;18.60;63.50;;;;;;5015946;28;90251;-32
2023/05/19 09:58:20;;;;;;;5.38;3.50;;;18.40;65.20;;;;;;5015696;28;89297;-36
2023/05/19 10:00:47;;;;;;;5.55;3.83;;;18.40;64.50;;;;;;5016731;28;89701;-31
2023/05/19 10:03:13;;;;;;;7.10;4.40;;;18.40;63.20;;;;;;5015732;28;90021;-32
2023/05/19 10:05:40;;;;;;;5.55;4.13;;;18.40;62.50;;;;;;5016301;28;88925;-31
2023/05/19 10:08:09;;;;;;;7.60;4.22;;;18.20;62.20;;;;;;5016486;28;89802;-37
2023/05/19 10:10:36;;;;;;;11.32;5.00;;;18.30;63.50;;;;;;5016342;28;89572;-33
2023/05/19 10:13:03;;;;;;;5.40;4.57;;;18.50;66.80;;;;;;4998666;28;89258;-33
2023/05/19 10:15:29;;;;;;;6.05;4.63;;;18.60;66.60;;;;;;5014991;28;89927;-33
2023/05/19 10:17:55;;;;;;;4.25;3.85;;;18.60;65.10;;;;;;5015889;28;89683;-31
2023/05/19 10:20:21;;;;;;;7.15;4.35;;;18.70;66.40;;;;;;5015248;28;90909;-32
2023/05/19 10:22:47;;;;;;;6.38;3.92;;;18.90;65.10;;;;;;5016050;28;88922;-33
2023/05/19 10:25:18;;;;;;;10.02;4.47;;;19.00;65.40;;;;;;4997387;28;91299;-35
2023/05/19 10:27:52;;;;;;;6.47;4.07;;;18.90;64.00;;;;;;5014659;28;91493;-36
2023/05/19 10:30:25;;;;;;;4.60;3.05;;;18.70;62.90;;;;;;5014921;28;92311;-36
2023/05/19 10:32:53;;;;;;;7.63;4.43;;;18.80;65.10;;;;;;5016308;28;88733;-33
2023/05/19 10:36:01;;;;;;;5.85;3.90;;;18.70;61.60;;;;;;5016162;28;90639;-31
2023/05/19 10:39:03;;;;;;;6.68;4.85;;;18.80;63.80;;;;;;5015789;28;90205;-35
2023/05/19 10:41:39;;;;;;;9.57;4.25;;;18.70;65.20;;;;;;5003913;28;89535;-36
2023/05/19 10:44:42;;;;;;;8.82;4.03;;;18.80;65.60;;;;;;5016117;28;89163;-34
2023/05/19 10:47:10;;;;;;;6.40;4.00;;;18.90;64.30;;;;;;5015655;28;92086;-34
2023/05/19 10:49:36;;;;;;;6.82;3.85;;;18.30;63.90;;;;;;5014720;28;89651;-33
2023/05/19 10:52:03;;;;;;;8.95;3.97;;;18.30;63.70;;;;;;5015162;28;89801;-34
2023/05/19 10:54:39;;;;;;;11.55;4.35;;;18.40;63.00;;;;;;5014779;28;90227;-37
2023/05/19 10:57:05;;;;;;;8.35;3.40;;;18.50;68.10;;;;;;5014901;28;90212;-34
2023/05/19 10:59:38;;;;;;;12.70;4.13;;;18.70;66.30;;;;;;5015354;28;89660;-36
2023/05/19 11:02:04;;;;;;;7.32;3.95;;;18.60;64.40;;;;;;5014435;28;89442;-34
2023/05/19 11:04:49;;;;;;;6.93;5.13;;;18.60;64.50;;;;;;4998521;28;90824;-32
2023/05/19 11:07:18;;;;;;;5.75;4.63;;;18.50;63.60;;;;;;5006562;28;90430;-32
2023/05/19 11:09:51;;;;;;;5.93;3.70;;;18.60;64.90;;;;;;5018318;28;89127;-36
2023/05/19 11:12:21;;;;;;;7.55;3.90;;;18.50;63.70;;;;;;5018693;28;89738;-33
2023/05/19 11:14:47;;;;;;;10.68;3.63;;;18.50;64.90;;;;;;5018777;28;88836;-33
2023/05/19 11:17:14;;;;;;;6.03;4.97;;;18.60;66.10;;;;;;5018831;28;91142;-33
2023/05/19 11:19:54;;;;;;;8.07;4.60;;;18.60;63.20;;;;;;5017744;28;90995;-35
2023/05/19 11:22:24;;;;;;;8.07;4.05;;;18.40;64.50;;;;;;5018300;28;89240;-31
2023/05/19 11:24:52;;;;;;;7.28;4.35;;;18.50;66.20;;;;;;5018694;28;90311;-32
2023/05/19 11:27:25;;;;;;;7.20;3.35;;;18.60;65.50;;;;;;5018945;28;88364;-34
2023/05/19 11:29:51;;;;;;;4.63;3.30;;;18.50;64.60;;;;;;5005744;28;90175;-34
2023/05/19 11:32:20;;;;;;;7.25;3.25;;;18.60;63.70;;;;;;5018210;28;90023;-34
2023/05/19 11:34:47;;;;;;;;;;;18.60;65.60;;;;;;5019574;28;90131;-35
2023/05/19 11:37:12;;;;;;;8.65;3.88;;;18.70;65.60;;;;;;5019639;28;90017;-34
2023/05/19 11:39:39;;;;;;;4.20;3.53;;;18.50;65.30;;;;;;5018228;28;89677;-32
2023/05/19 11:42:04;;;;;;;6.70;4.88;;;18.40;64.30;;;;;;5017927;28;88990;-35
2023/05/19 11:44:31;;;;;;;4.40;3.78;;;18.40;63.50;;;;;;5018238;28;90113;-32
2023/05/19 11:46:58;;;;;;;11.00;4.20;;;18.60;67.00;;;;;;5018241;28;89562;-35
2023/05/19 11:49:24;;;;;;;12.13;4.33;;;18.90;68.40;;;;;;5018301;28;89726;-35
2023/05/19 11:51:49;;;;;;;7.93;4.30;;;18.60;64.60;;;;;;5017751;28;89594;-34
2023/05/19 11:54:15;;;;;;;8.80;4.20;;;18.30;62.30;;;;;;4999965;28;88983;-34
2023/05/19 11:56:41;;;;;;;8.75;4.05;;;18.20;65.10;;;;;;5018015;28;90845;-33
2023/05/19 11:59:08;;;;;;;6.57;3.85;;;18.40;63.90;;;;;;5018283;28;89923;-36
2023/05/19 12:01:34;;;;;;;6.10;4.38;;;18.40;62.90;;;;;;5018273;28;89123;-32
2023/05/19 12:04:01;;;;;;;7.63;4.25;;;18.30;64.40;;;;;;5018864;28;89087;-34
2023/05/19 12:06:28;;;;;;;5.45;3.50;;;18.40;65.40;;;;;;5017042;28;89749;-34
2023/05/19 12:08:54;;;;;;;5.93;3.60;;;18.50;64.80;;;;;;5018090;28;90912;-36
2023/05/19 12:11:20;;;;;;;8.90;3.75;;;18.70;63.80;;;;;;5017568;28;91000;-35
2023/05/19 12:13:46;;;;;;;4.57;4.18;;;18.60;64.20;;;;;;5018300;28;89397;-33
2023/05/19 12:16:12;;;;;;;6.13;3.85;;;18.60;61.90;;;;;;5017203;28;90230;-35
2023/05/19 12:18:39;;;;;;;10.20;4.45;;;18.40;63.10;;;;;;5018400;28;89790;-34
2023/05/19 12:21:05;;;;;;;5.78;4.07;;;18.50;64.10;;;;;;5016697;28;89265;-35
2023/05/19 12:23:32;;;;;;;8.38;3.92;;;18.40;63.20;;;;;;5018101;28;87698;-33
2023/05/19 12:25:58;;;;;;;14.07;5.03;;;18.50;64.80;;;;;;4999926;28;90778;-32
2023/05/19 12:28:24;;;;;;;6.97;4.40;;;18.70;65.70;;;;;;5017116;28;89992;-32
2023/05/19 12:30:51;;;;;;;5.13;4.18;;;18.60;62.70;;;;;;5017667;28;89190;-35
2023/05/19 12:33:18;;;;;;;6.90;4.95;;;18.50;62.10;;;;;;5017572;28;89927;-36
2023/05/19 12:35:45;;;;;;;6.50;3.80;;;18.70;65.50;;;;;;5017015;28;90204;-32
2023/05/19 12:38:13;;;;;;;10.25;4.25;;;18.50;63.00;;;;;;5017080;28;89950;-33
2023/05/19 12:40:38;;;;;;;4.88;4.32;;;18.50;64.30;;;;;;5017528;28;90480;-33
2023/05/19 12:43:05;;;;;;;5.30;4.38;;;18.50;64.30;;;;;;5017121;28;89323;-34
2023/05/19 12:45:34;;;;;;;5.30;4.05;;;18.70;62.80;;;;;;5017321;28;91049;-34
2023/05/19 12:48:21;;;;;;;9.98;4.53;;;18.70;66.00;;;;;;5017615;28;89505;-33
2023/05/19 12:50:47;;;;;;;4.55;3.85;;;18.80;65.80;;;;;;5017737;28;89855;-33